Time;durP1;ratioP1;P1;durP2;ratioP2;P2;SDS_P1;SDS_P2;PMS_P1;PMS_P2;Temp;Humidity;BMP_temperature;BMP_pressure;BME280_temperature;BME280_humidity;BME280_pressure;Samples;Min_cycle;Max_cycle;Signal;HPM_P1;HPM_P2
2022/10/15 00:01:08;;;;;;;0.67;0.60;;;19.00;92.40;;;-142.21;100.00;112049.66;5113058;28;20284;-69
2022/10/15 00:03:40;;;;;;;0.63;0.30;;;19.00;92.50;;;-142.21;100.00;112049.66;5113168;28;20937;-69
2022/10/15 00:06:10;;;;;;;0.57;0.53;;;19.10;92.50;;;-142.21;100.00;112049.66;5113361;28;20651;-68
2022/10/15 00:08:39;;;;;;;0.93;0.70;;;19.10;92.40;;;-142.21;100.00;112049.66;5112961;28;20433;-70
2022/10/15 00:11:09;;;;;;;0.60;0.30;;;19.10;92.50;;;-142.21;100.00;112049.66;5113111;28;20717;-69
2022/10/15 00:13:37;;;;;;;2.03;0.43;;;19.10;92.60;;;-142.21;100.00;112049.66;5113068;28;20439;-69
2022/10/15 00:16:10;;;;;;;0.57;0.40;;;19.10;92.50;;;-142.21;100.00;112049.66;5112693;28;20671;-68
2022/10/15 00:18:39;;;;;;;0.30;0.30;;;19.10;92.70;;;-142.21;100.00;112049.66;5112389;28;20587;-69
2022/10/15 00:21:09;;;;;;;0.60;0.53;;;19.10;92.70;;;-142.21;100.00;112049.66;5113345;28;20200;-70
2022/10/15 00:23:37;;;;;;;0.47;0.40;;;19.00;92.80;;;-142.21;100.00;112049.66;5112989;28;20330;-69
2022/10/15 00:26:07;;;;;;;2.67;0.40;;;19.00;93.00;;;-142.21;100.00;112049.66;5113330;28;20448;-69
2022/10/15 00:28:36;;;;;;;2.03;0.80;;;18.90;93.20;;;-142.21;100.00;112049.66;5111893;28;20708;-70
2022/10/15 00:31:06;;;;;;;0.80;0.50;;;19.00;93.40;;;-142.21;100.00;112049.66;5113036;28;20534;-69
2022/10/15 00:33:39;;;;;;;0.77;0.60;;;19.00;93.40;;;-142.21;100.00;112049.66;5112655;28;20430;-68
2022/10/15 00:36:12;;;;;;;0.40;0.40;;;18.90;93.60;;;-142.21;100.00;112049.66;5112939;28;20210;-69
2022/10/15 00:38:40;;;;;;;0.50;0.50;;;19.00;93.60;;;-142.21;100.00;112049.66;5062289;28;20441;-68
2022/10/15 00:41:12;;;;;;;1.17;0.50;;;19.00;93.40;;;-142.21;100.00;112049.66;5112876;28;20231;-69
2022/10/15 00:43:44;;;;;;;1.33;0.50;;;19.00;93.50;;;-142.21;100.00;112049.66;5112004;28;20623;-69
2022/10/15 00:46:31;;;;;;;0.40;0.33;;;19.00;93.60;;;-142.21;100.00;112049.66;5112867;28;20458;-69
2022/10/15 00:49:11;;;;;;;0.33;0.33;;;19.00;93.80;;;-142.21;100.00;112049.66;5112823;28;20192;-68
2022/10/15 00:51:44;;;;;;;0.70;0.40;;;19.00;93.90;;;-142.21;100.00;112049.66;5111837;28;20306;-68
2022/10/15 00:54:13;;;;;;;0.40;0.40;;;19.00;94.00;;;-142.21;100.00;112049.66;5112626;28;20193;-69
2022/10/15 00:56:42;;;;;;;3.40;0.83;;;19.00;93.80;;;-142.21;100.00;112049.66;5111641;28;20204;-68
2022/10/15 00:59:13;;;;;;;0.50;0.50;;;19.10;93.90;;;-142.21;100.00;112049.66;5112319;28;20239;-69
2022/10/15 01:01:40;;;;;;;0.50;0.47;;;19.10;93.80;;;-142.21;100.00;112049.66;5111624;28;20951;-68
2022/10/15 01:04:09;;;;;;;2.23;0.50;;;19.00;94.00;;;-142.21;100.00;112049.66;5112569;28;20521;-68
2022/10/15 01:06:37;;;;;;;1.43;0.60;;;19.00;94.10;;;-142.21;100.00;112049.66;5112077;28;20204;-71
2022/10/15 01:09:06;;;;;;;4.17;1.27;;;19.00;94.10;;;-142.21;100.00;112049.66;5112020;28;20675;-68
2022/10/15 01:11:42;;;;;;;0.40;0.40;;;19.00;94.30;;;-142.21;100.00;112049.66;5111898;28;20844;-68
2022/10/15 01:14:25;;;;;;;1.13;0.50;;;19.00;94.50;;;-142.21;100.00;112049.66;5111989;28;20238;-71
2022/10/15 01:17:03;;;;;;;0.70;0.60;;;19.00;94.70;;;-142.21;100.00;112049.66;5112227;28;20444;-69
2022/10/15 01:20:12;;;;;;;0.83;0.47;;;19.00;94.60;;;-142.21;100.00;112049.66;5111327;28;20567;-68
2022/10/15 01:23:01;;;;;;;1.13;0.43;;;19.10;94.70;;;-142.21;100.00;112049.66;5111816;28;20201;-68
2022/10/15 01:25:48;;;;;;;0.80;0.60;;;19.00;94.60;;;-142.21;100.00;112049.66;5111834;28;20219;-69
2022/10/15 01:28:34;;;;;;;0.30;0.30;;;19.00;94.60;;;-142.21;100.00;112049.66;5111378;28;20432;-69
2022/10/15 01:31:13;;;;;;;0.37;0.37;;;19.10;94.80;;;-142.21;100.00;112049.66;5111806;28;20247;-68
2022/10/15 01:33:50;;;;;;;0.50;0.40;;;19.10;95.10;;;-142.21;100.00;112049.66;5111560;28;20426;-69
2022/10/15 01:36:24;;;;;;;0.60;0.60;;;19.10;94.80;;;-142.21;100.00;112049.66;5111738;28;20455;-69
2022/10/15 01:39:01;;;;;;;0.63;0.30;;;19.10;94.80;;;-142.21;100.00;112049.66;5112202;28;20509;-69
2022/10/15 01:41:40;;;;;;;1.40;0.63;;;19.10;95.00;;;-142.21;100.00;112049.66;5110748;28;20421;-68
2022/10/15 01:44:13;;;;;;;1.07;0.50;;;19.10;94.90;;;-142.21;100.00;112049.66;5111760;28;20436;-68
2022/10/15 01:46:48;;;;;;;0.80;0.80;;;19.10;94.90;;;-142.21;100.00;112049.66;5111239;28;20190;-68
2022/10/15 01:49:21;;;;;;;0.77;0.67;;;19.10;95.00;;;-142.21;100.00;112049.66;5111988;28;20472;-69
2022/10/15 01:51:52;;;;;;;1.53;0.50;;;19.20;94.90;;;-142.21;100.00;112049.66;5111974;28;20465;-68
2022/10/15 01:54:22;;;;;;;3.10;0.70;;;19.10;95.00;;;-142.21;100.00;112049.66;5112072;28;20191;-69
2022/10/15 01:56:52;;;;;;;0.60;0.27;;;19.20;95.00;;;-142.21;100.00;112049.66;5111070;28;20208;-68
2022/10/15 01:59:24;;;;;;;0.50;0.50;;;19.20;94.90;;;-142.21;100.00;112049.66;5111968;28;20624;-68
2022/10/15 02:01:53;;;;;;;0.47;0.47;;;19.20;95.00;;;-142.21;100.00;112049.66;5111384;28;20192;-68
2022/10/15 02:04:25;;;;;;;0.53;0.53;;;19.20;95.10;;;-142.21;100.00;112049.66;5111843;28;20826;-69
2022/10/15 02:07:02;;;;;;;0.67;0.50;;;19.10;95.40;;;-142.21;100.00;112049.66;5111956;28;20241;-70
2022/10/15 02:09:41;;;;;;;2.13;0.50;;;19.10;95.40;;;-142.21;100.00;112049.66;5110885;28;20191;-69
2022/10/15 02:12:25;;;;;;;0.43;0.43;;;19.00;95.70;;;-142.21;100.00;112049.66;5111194;28;20212;-69
2022/10/15 02:15:03;;;;;;;1.50;0.90;;;19.00;95.70;;;-142.21;100.00;112049.66;5111909;28;20195;-70
2022/10/15 02:17:39;;;;;;;0.50;0.50;;;19.10;95.60;;;-142.21;100.00;112049.66;5110667;28;20729;-69
2022/10/15 02:20:14;;;;;;;0.80;0.80;;;19.10;95.90;;;-142.21;100.00;112049.66;5111418;28;20440;-69
2022/10/15 02:22:50;;;;;;;1.03;1.03;;;19.00;96.00;;;-142.21;100.00;112049.66;5058581;28;20196;-68
2022/10/15 02:25:25;;;;;;;2.83;0.70;;;19.00;96.20;;;-142.21;100.00;112049.66;5111230;28;20450;-68
2022/10/15 02:27:57;;;;;;;1.93;0.80;;;19.00;96.10;;;-142.21;100.00;112049.66;5111723;28;20202;-68
2022/10/15 02:30:27;;;;;;;0.40;0.30;;;19.10;96.00;;;-142.21;100.00;112049.66;5110907;28;20466;-68
2022/10/15 02:32:58;;;;;;;0.50;0.50;;;19.10;95.90;;;-142.21;100.00;112049.66;5114329;28;20229;-69
2022/10/15 02:35:27;;;;;;;0.40;0.40;;;19.20;95.90;;;-142.21;100.00;112049.66;5062542;28;20874;-68
2022/10/15 02:38:01;;;;;;;1.33;0.90;;;19.20;95.80;;;-142.21;100.00;112049.66;5114134;28;20463;-68
2022/10/15 02:40:34;;;;;;;1.03;0.70;;;19.20;96.10;;;-142.21;100.00;112049.66;5114565;28;20279;-68
2022/10/15 02:43:05;;;;;;;1.47;0.80;;;19.20;96.00;;;-142.21;100.00;112049.66;5114500;28;20184;-70
2022/10/15 02:45:32;;;;;;;0.67;0.53;;;19.20;95.90;;;-142.21;100.00;112049.66;5114639;28;20422;-70
2022/10/15 02:48:01;;;;;;;0.40;0.40;;;19.20;95.90;;;-142.21;100.00;112049.66;5115155;28;20594;-68
2022/10/15 02:50:28;;;;;;;0.50;0.50;;;19.20;96.00;;;-142.21;100.00;112049.66;5114568;28;20525;-68
2022/10/15 02:52:55;;;;;;;0.47;0.47;;;19.20;95.90;;;-142.21;100.00;112049.66;5114491;28;20224;-70
2022/10/15 02:55:22;;;;;;;0.60;0.43;;;19.20;95.80;;;-142.21;100.00;112049.66;5114834;28;20234;-68
2022/10/15 02:57:49;;;;;;;1.67;0.77;;;19.30;95.80;;;-142.21;100.00;112049.66;5114376;28;20200;-68
2022/10/15 03:00:17;;;;;;;1.13;0.80;;;19.20;95.70;;;-142.21;100.00;112049.66;5114540;28;20243;-69
2022/10/15 03:02:44;;;;;;;0.97;0.70;;;19.20;95.70;;;-142.21;100.00;112049.66;5114281;28;20211;-69
2022/10/15 03:05:13;;;;;;;0.80;0.80;;;19.30;95.80;;;-142.21;100.00;112049.66;5114856;28;20229;-70
2022/10/15 03:07:40;;;;;;;1.00;0.90;;;19.30;95.70;;;-142.21;100.00;112049.66;5114071;28;20211;-69
2022/10/15 03:10:08;;;;;;;0.60;0.60;;;19.30;95.70;;;-142.21;100.00;112049.66;5114493;28;20246;-69
2022/10/15 03:12:35;;;;;;;1.83;0.80;;;19.30;95.70;;;-142.21;100.00;112049.66;5113925;28;20315;-69
2022/10/15 03:15:03;;;;;;;0.70;0.60;;;19.30;95.70;;;-142.21;100.00;112049.66;5114677;28;20310;-69
2022/10/15 03:17:30;;;;;;;1.23;0.60;;;19.30;95.70;;;-142.21;100.00;112049.66;5113562;28;20474;-69
2022/10/15 03:20:00;;;;;;;1.43;0.57;;;19.30;95.80;;;-142.21;100.00;112049.66;5114632;28;20510;-69
2022/10/15 03:22:28;;;;;;;4.00;0.83;;;19.30;95.70;;;-142.21;100.00;112049.66;5113740;28;20624;-70
2022/10/15 03:24:55;;;;;;;0.47;0.30;;;19.40;95.80;;;-142.21;100.00;112049.66;5114356;28;20231;-70
2022/10/15 03:27:22;;;;;;;0.50;0.50;;;19.40;95.70;;;-142.21;100.00;112049.66;5114551;28;20289;-69
2022/10/15 03:29:52;;;;;;;0.70;0.60;;;19.40;95.60;;;-142.21;100.00;112049.66;5113667;28;20224;-69
2022/10/15 03:32:25;;;;;;;0.70;0.50;;;19.40;95.60;;;-142.21;100.00;112049.66;5114466;28;20224;-69
2022/10/15 03:34:52;;;;;;;0.77;0.60;;;19.40;95.60;;;-142.21;100.00;112049.66;5114442;28;20609;-69
2022/10/15 03:37:19;;;;;;;1.43;0.50;;;19.30;95.50;;;-142.21;100.00;112049.66;5113875;28;20644;-69
2022/10/15 03:39:48;;;;;;;0.87;0.60;;;19.40;95.60;;;-142.21;100.00;112049.66;5113649;28;20210;-69
2022/10/15 03:42:15;;;;;;;1.70;0.60;;;19.40;95.60;;;-142.21;100.00;112049.66;5113755;28;20290;-68
2022/10/15 03:44:42;;;;;;;0.50;0.50;;;19.40;95.60;;;-142.21;100.00;112049.66;5113334;28;20261;-68
2022/10/15 03:47:12;;;;;;;0.57;0.57;;;19.40;95.60;;;-142.21;100.00;112049.66;5113862;28;20206;-70
2022/10/15 03:49:39;;;;;;;1.27;0.70;;;19.40;95.60;;;-142.21;100.00;112049.66;5113157;28;20200;-69
2022/10/15 03:52:06;;;;;;;0.67;0.67;;;19.40;95.60;;;-142.21;100.00;112049.66;5113153;28;20219;-70
2022/10/15 03:54:33;;;;;;;0.87;0.87;;;19.30;95.50;;;-142.21;100.00;112049.66;5113041;28;20200;-70
2022/10/15 03:57:02;;;;;;;0.60;0.60;;;19.30;95.50;;;-142.21;100.00;112049.66;5113524;28;20206;-70
2022/10/15 03:59:29;;;;;;;0.60;0.60;;;19.30;95.40;;;-142.21;100.00;112049.66;5113252;28;20211;-70
2022/10/15 04:01:56;;;;;;;2.50;0.73;;;19.40;95.40;;;-142.21;100.00;112049.66;5113772;28;20219;-70
2022/10/15 04:04:23;;;;;;;1.53;1.13;;;19.40;95.30;;;-142.21;100.00;112049.66;5113340;28;20441;-69
2022/10/15 04:06:50;;;;;;;2.73;0.90;;;19.40;95.40;;;-142.21;100.00;112049.66;5112889;28;20206;-68
2022/10/15 04:09:20;;;;;;;1.10;0.60;;;19.40;95.20;;;-142.21;100.00;112049.66;5113671;28;20200;-70
2022/10/15 04:11:47;;;;;;;2.13;0.57;;;19.40;95.10;;;-142.21;100.00;112049.66;5112521;28;20233;-70
2022/10/15 04:14:15;;;;;;;1.27;0.73;;;19.40;95.10;;;-142.21;100.00;112049.66;5113472;28;20207;-70
2022/10/15 04:16:43;;;;;;;0.60;0.60;;;19.40;95.30;;;-142.21;100.00;112049.66;5112976;28;20441;-69
2022/10/15 04:19:10;;;;;;;0.57;0.57;;;19.40;95.20;;;-142.21;100.00;112049.66;5112615;28;20469;-69
2022/10/15 04:21:37;;;;;;;3.93;0.93;;;19.40;95.20;;;-142.21;100.00;112049.66;5112200;28;20214;-69
2022/10/15 04:24:04;;;;;;;1.43;0.60;;;19.50;95.10;;;-142.21;100.00;112049.66;5113078;28;20204;-69
2022/10/15 04:26:35;;;;;;;0.70;0.70;;;19.50;95.00;;;-142.21;100.00;112049.66;5112587;28;20257;-70
2022/10/15 04:29:03;;;;;;;0.90;0.63;;;19.50;95.00;;;-142.21;100.00;112049.66;5112937;28;20278;-69
2022/10/15 04:31:32;;;;;;;1.20;0.63;;;19.50;95.00;;;-142.21;100.00;112049.66;5112999;28;20861;-69
2022/10/15 04:33:59;;;;;;;0.83;0.60;;;19.40;95.10;;;-142.21;100.00;112049.66;5112907;28;20207;-69
2022/10/15 04:36:26;;;;;;;0.93;0.70;;;19.30;95.20;;;-142.21;100.00;112049.66;5113050;28;20286;-69
2022/10/15 04:38:53;;;;;;;1.73;0.80;;;19.30;95.20;;;-142.21;100.00;112049.66;5112263;28;20262;-69
2022/10/15 04:41:20;;;;;;;0.60;0.60;;;19.40;95.20;;;-142.21;100.00;112049.66;5112722;28;20223;-69
2022/10/15 04:43:49;;;;;;;0.90;0.70;;;19.40;95.20;;;-142.21;100.00;112049.66;5112388;28;20204;-69
2022/10/15 04:46:16;;;;;;;1.30;0.70;;;19.50;95.20;;;-142.21;100.00;112049.66;5112877;28;20437;-69
2022/10/15 04:48:45;;;;;;;1.30;0.70;;;19.40;95.10;;;-142.21;100.00;112049.66;5112105;28;20231;-69
2022/10/15 04:51:15;;;;;;;2.20;0.70;;;19.50;95.20;;;-142.21;100.00;112049.66;5112729;28;20207;-69
2022/10/15 04:53:43;;;;;;;1.40;0.50;;;19.40;95.00;;;-142.21;100.00;112049.66;5111369;28;20558;-70
2022/10/15 04:56:14;;;;;;;0.90;0.87;;;19.50;95.00;;;-142.21;100.00;112049.66;5111972;28;20203;-70
2022/10/15 04:58:42;;;;;;;0.90;0.87;;;19.50;95.00;;;-142.21;100.00;112049.66;5111732;28;20239;-70
2022/10/15 05:01:13;;;;;;;0.70;0.70;;;19.40;94.90;;;-142.21;100.00;112049.66;5112293;28;20236;-69
2022/10/15 05:03:42;;;;;;;1.73;0.90;;;19.50;94.90;;;-142.21;100.00;112049.66;5111884;28;20283;-69
2022/10/15 05:06:12;;;;;;;1.90;0.87;;;19.40;94.90;;;-142.21;100.00;112049.66;5112095;28;20218;-69
2022/10/15 05:08:42;;;;;;;1.60;0.87;;;19.40;94.70;;;-142.21;100.00;112049.66;5111760;28;20191;-69
2022/10/15 05:11:14;;;;;;;1.33;0.67;;;19.40;94.70;;;-142.21;100.00;112049.66;5111936;28;20295;-69
2022/10/15 05:13:42;;;;;;;2.37;1.20;;;19.40;94.70;;;-142.21;100.00;112049.66;5111855;28;20470;-69
2022/10/15 05:16:12;;;;;;;2.83;1.00;;;19.40;94.60;;;-142.21;100.00;112049.66;5112422;28;20211;-69
2022/10/15 05:18:41;;;;;;;1.13;0.90;;;19.40;94.60;;;-142.21;100.00;112049.66;5111213;28;20322;-68
2022/10/15 05:21:10;;;;;;;1.20;0.80;;;19.40;94.30;;;-142.21;100.00;112049.66;5112117;28;20292;-69
2022/10/15 05:23:38;;;;;;;0.80;0.80;;;19.40;94.50;;;-142.21;100.00;112049.66;5111220;28;20678;-69
2022/10/15 05:26:08;;;;;;;2.20;1.33;;;19.30;94.40;;;-142.21;100.00;112049.66;5111930;28;20294;-69
2022/10/15 05:28:36;;;;;;;1.40;0.90;;;19.30;94.60;;;-142.21;100.00;112049.66;5111419;28;20733;-70
2022/10/15 05:31:08;;;;;;;2.10;0.80;;;19.30;94.50;;;-142.21;100.00;112049.66;5112049;28;20289;-68
2022/10/15 05:33:38;;;;;;;2.00;0.93;;;19.30;94.50;;;-142.21;100.00;112049.66;5111172;28;20309;-69
2022/10/15 05:36:18;;;;;;;1.33;1.00;;;19.30;94.40;;;-142.21;100.00;112049.66;5111899;28;20257;-68
2022/10/15 05:38:47;;;;;;;1.47;1.07;;;19.30;94.30;;;-142.21;100.00;112049.66;5111330;28;20195;-69
2022/10/15 05:41:14;;;;;;;3.30;1.17;;;19.20;94.20;;;-142.21;100.00;112049.66;5111952;28;20291;-70
2022/10/15 05:43:41;;;;;;;4.50;1.20;;;19.20;94.40;;;-142.21;100.00;112049.66;5111139;28;20482;-70
2022/10/15 05:46:09;;;;;;;4.50;0.97;;;19.30;94.20;;;-142.21;100.00;112049.66;5111553;28;20229;-69
2022/10/15 05:48:36;;;;;;;1.70;0.97;;;19.20;94.10;;;-142.21;100.00;112049.66;5110853;28;20312;-69
2022/10/15 05:51:05;;;;;;;1.93;0.90;;;19.20;94.10;;;-142.21;100.00;112049.66;5112029;28;20203;-69
2022/10/15 05:53:34;;;;;;;3.93;1.23;;;19.20;94.00;;;-142.21;100.00;112049.66;5111858;28;20224;-69
2022/10/15 05:56:01;;;;;;;2.23;1.03;;;19.10;94.30;;;-142.21;100.00;112049.66;5111816;28;20231;-69
2022/10/15 05:58:33;;;;;;;1.63;1.00;;;19.10;94.00;;;-142.21;100.00;112049.66;5111719;28;20254;-69
2022/10/15 06:01:04;;;;;;;1.17;1.07;;;19.10;94.10;;;-142.21;100.00;112049.66;5111495;28;20429;-70
2022/10/15 06:03:32;;;;;;;2.20;1.20;;;19.10;94.00;;;-142.21;100.00;112049.66;5111460;28;20180;-70
2022/10/15 06:05:59;;;;;;;1.63;1.27;;;19.20;94.00;;;-142.21;100.00;112049.66;5112357;28;20207;-70
2022/10/15 06:08:28;;;;;;;1.70;1.23;;;19.20;93.80;;;-142.21;100.00;112049.66;5115805;28;20208;-69
2022/10/15 06:11:03;;;;;;;1.40;1.30;;;19.20;93.80;;;-142.21;100.00;112049.66;5115444;28;20888;-69
2022/10/15 06:13:30;;;;;;;2.33;1.40;;;19.30;93.80;;;-142.21;100.00;112049.66;5115724;28;20571;-69
2022/10/15 06:15:57;;;;;;;1.50;1.40;;;19.20;93.60;;;-142.21;100.00;112049.66;5115049;28;20529;-70
2022/10/15 06:18:24;;;;;;;2.07;1.63;;;19.20;93.60;;;-142.21;100.00;112049.66;5115353;28;20854;-69
2022/10/15 06:20:52;;;;;;;1.50;1.40;;;19.20;93.70;;;-142.21;100.00;112049.66;5114999;28;20208;-70
2022/10/15 06:23:20;;;;;;;1.27;1.13;;;19.20;93.80;;;-142.21;100.00;112049.66;5115735;28;20570;-69
2022/10/15 06:25:48;;;;;;;1.67;1.40;;;19.20;93.80;;;-142.21;100.00;112049.66;5115137;28;20440;-69
2022/10/15 06:28:16;;;;;;;1.20;1.10;;;19.20;93.70;;;-142.21;100.00;112049.66;5115422;28;20473;-69
2022/10/15 06:30:44;;;;;;;1.80;1.17;;;19.30;93.60;;;-142.21;100.00;112049.66;5114805;28;20291;-70
2022/10/15 06:33:12;;;;;;;1.00;0.90;;;19.20;93.50;;;-142.21;100.00;112049.66;5115247;28;20314;-70
2022/10/15 06:35:40;;;;;;;2.43;1.23;;;19.20;93.50;;;-142.21;100.00;112049.66;5114587;28;20207;-69
2022/10/15 06:38:07;;;;;;;1.30;1.10;;;19.20;93.60;;;-142.21;100.00;112049.66;5115422;28;20204;-69
2022/10/15 06:40:34;;;;;;;1.67;1.50;;;19.30;93.30;;;-142.21;100.00;112049.66;5115386;28;20291;-69
2022/10/15 06:43:09;;;;;;;1.10;1.00;;;19.30;93.50;;;-142.21;100.00;112049.66;5115204;28;20437;-69
2022/10/15 06:45:41;;;;;;;1.90;1.07;;;19.40;93.40;;;-142.21;100.00;112049.66;5114518;28;20632;-69
2022/10/15 06:48:09;;;;;;;1.53;1.37;;;19.40;93.30;;;-142.21;100.00;112049.66;5114972;28;20191;-69
2022/10/15 06:50:38;;;;;;;2.60;1.20;;;19.40;93.30;;;-142.21;100.00;112049.66;5115236;28;20200;-69
2022/10/15 06:53:06;;;;;;;3.00;1.00;;;19.40;93.20;;;-142.21;100.00;112049.66;5114945;28;20224;-69
2022/10/15 06:55:34;;;;;;;1.50;1.40;;;19.40;93.20;;;-142.21;100.00;112049.66;5115065;28;20200;-70
2022/10/15 06:58:02;;;;;;;3.20;1.47;;;19.50;93.10;;;-142.21;100.00;112049.66;5114187;28;20221;-70
2022/10/15 07:00:29;;;;;;;2.73;1.30;;;19.50;93.10;;;-142.21;100.00;112049.66;5114334;28;20287;-69
2022/10/15 07:03:03;;;;;;;1.30;1.20;;;19.50;93.00;;;-142.21;100.00;112049.66;5114392;28;20288;-70
2022/10/15 07:05:32;;;;;;;1.30;1.20;;;19.50;92.90;;;-142.21;100.00;112049.66;5114545;28;20242;-69
2022/10/15 07:08:00;;;;;;;1.33;1.17;;;19.50;93.10;;;-142.21;100.00;112049.66;5114153;28;20207;-69
2022/10/15 07:10:28;;;;;;;1.40;1.30;;;19.50;93.10;;;-142.21;100.00;112049.66;5114845;28;20302;-69
2022/10/15 07:12:55;;;;;;;1.27;1.17;;;19.50;93.20;;;-142.21;100.00;112049.66;5113875;28;20224;-69
2022/10/15 07:15:23;;;;;;;1.20;1.10;;;19.50;93.20;;;-142.21;100.00;112049.66;5114598;28;20290;-69
2022/10/15 07:17:55;;;;;;;2.07;1.43;;;19.50;93.30;;;-142.21;100.00;112049.66;5113005;28;20239;-70
2022/10/15 07:20:23;;;;;;;1.17;1.07;;;19.40;93.40;;;-142.21;100.00;112049.66;5114216;28;20240;-70
2022/10/15 07:22:52;;;;;;;1.60;1.10;;;19.40;93.60;;;-142.21;100.00;112049.66;5114154;28;20656;-69
2022/10/15 07:25:19;;;;;;;1.30;1.20;;;19.40;93.60;;;-142.21;100.00;112049.66;5114437;28;20211;-68
2022/10/15 07:27:46;;;;;;;2.13;1.30;;;19.50;93.60;;;-142.21;100.00;112049.66;5113343;28;20268;-69
2022/10/15 07:30:14;;;;;;;1.10;1.10;;;19.50;93.50;;;-142.21;100.00;112049.66;5114292;28;20255;-70
2022/10/15 07:32:42;;;;;;;1.73;0.97;;;19.50;93.50;;;-142.21;100.00;112049.66;5113650;28;20543;-70
2022/10/15 07:35:09;;;;;;;1.63;1.27;;;19.60;93.50;;;-142.21;100.00;112049.66;5113836;28;20448;-71
2022/10/15 07:37:38;;;;;;;1.20;1.10;;;19.60;93.50;;;-142.21;100.00;112049.66;5114023;28;20243;-69
2022/10/15 07:40:07;;;;;;;2.03;1.20;;;19.60;93.50;;;-142.21;100.00;112049.66;5114209;28;20520;-69
2022/10/15 07:42:37;;;;;;;1.20;1.10;;;19.60;93.50;;;-142.21;100.00;112049.66;5114023;28;20613;-69
2022/10/15 07:45:05;;;;;;;2.17;1.73;;;19.60;93.50;;;-142.21;100.00;112049.66;5113074;28;20937;-69
2022/10/15 07:47:32;;;;;;;1.57;1.20;;;19.60;93.60;;;-142.21;100.00;112049.66;5113815;28;20235;-69
2022/10/15 07:50:00;;;;;;;0.90;0.90;;;19.60;93.60;;;-142.21;100.00;112049.66;5113499;28;20276;-69
2022/10/15 07:52:27;;;;;;;2.63;1.20;;;19.70;93.70;;;-142.21;100.00;112049.66;5114049;28;20479;-70
2022/10/15 07:54:56;;;;;;;2.97;1.27;;;19.60;93.60;;;-142.21;100.00;112049.66;5112984;28;20251;-69
2022/10/15 07:57:23;;;;;;;1.93;1.13;;;19.60;93.70;;;-142.21;100.00;112049.66;5113647;28;20236;-70
2022/10/15 07:59:50;;;;;;;3.40;1.03;;;19.60;93.60;;;-142.21;100.00;112049.66;5112984;28;20445;-70
2022/10/15 08:02:19;;;;;;;1.03;0.90;;;19.50;93.80;;;-142.21;100.00;112049.66;5113460;28;20291;-69
2022/10/15 08:04:46;;;;;;;1.03;1.03;;;19.50;93.90;;;-142.21;100.00;112049.66;5112825;28;20207;-70
2022/10/15 08:07:14;;;;;;;2.00;1.43;;;19.60;93.90;;;-142.21;100.00;112049.66;5113164;28;20246;-70
2022/10/15 08:09:41;;;;;;;1.60;1.20;;;19.60;93.90;;;-142.21;100.00;112049.66;5113486;28;20446;-70
2022/10/15 08:12:10;;;;;;;1.07;1.00;;;19.60;93.90;;;-142.21;100.00;112049.66;5113452;28;20203;-70
2022/10/15 08:14:37;;;;;;;2.40;1.13;;;19.60;93.90;;;-142.21;100.00;112049.66;5113302;28;20260;-68
2022/10/15 08:17:06;;;;;;;1.63;1.00;;;19.60;93.80;;;-142.21;100.00;112049.66;5112954;28;20247;-68
2022/10/15 08:19:34;;;;;;;3.13;0.93;;;19.60;93.90;;;-142.21;100.00;112049.66;5113391;28;20306;-69
2022/10/15 08:22:01;;;;;;;1.70;0.90;;;19.70;93.90;;;-142.21;100.00;112049.66;5112396;28;20705;-70
2022/10/15 08:24:30;;;;;;;1.27;0.90;;;19.70;93.90;;;-142.21;100.00;112049.66;5113165;28;20725;-70
2022/10/15 08:26:58;;;;;;;0.90;0.90;;;19.80;93.80;;;-142.21;100.00;112049.66;5112180;28;20208;-70
2022/10/15 08:29:26;;;;;;;3.53;0.90;;;19.80;93.80;;;-142.21;100.00;112049.66;5112961;28;20269;-70
2022/10/15 08:31:54;;;;;;;2.00;1.10;;;19.80;93.70;;;-142.21;100.00;112049.66;5112645;28;20204;-70
2022/10/15 08:34:21;;;;;;;1.13;1.00;;;19.80;93.60;;;-142.21;100.00;112049.66;5112921;28;20224;-68
2022/10/15 08:36:48;;;;;;;1.00;0.83;;;19.80;93.70;;;-142.21;100.00;112049.66;5112544;28;20238;-69
2022/10/15 08:39:15;;;;;;;2.10;1.30;;;19.80;93.70;;;-142.21;100.00;112049.66;5113038;28;20604;-71
2022/10/15 08:41:48;;;;;;;1.97;1.17;;;19.80;93.60;;;-142.21;100.00;112049.66;5112072;28;20207;-70
2022/10/15 08:44:29;;;;;;;2.90;1.60;;;19.80;93.60;;;-142.21;100.00;112049.66;5113061;28;20191;-69
2022/10/15 08:47:05;;;;;;;1.20;1.07;;;19.70;93.60;;;-142.21;100.00;112049.66;5112008;28;20632;-69
2022/10/15 08:49:45;;;;;;;1.30;0.90;;;19.80;93.70;;;-142.21;100.00;112049.66;5112942;28;20191;-68
2022/10/15 08:52:24;;;;;;;2.40;1.27;;;19.80;93.90;;;-142.21;100.00;112049.66;5112881;28;20274;-69
2022/10/15 08:54:52;;;;;;;1.80;1.03;;;19.80;93.80;;;-142.21;100.00;112049.66;5111854;28;20243;-68
2022/10/15 08:57:36;;;;;;;2.27;1.60;;;19.80;93.70;;;-142.21;100.00;112049.66;5112217;28;20215;-69
2022/10/15 09:00:14;;;;;;;3.13;1.57;;;19.80;93.70;;;-142.21;100.00;112049.66;5112066;28;20253;-69
2022/10/15 09:02:54;;;;;;;2.57;1.70;;;19.80;93.80;;;-142.21;100.00;112049.66;5112721;28;20558;-69
2022/10/15 09:05:41;;;;;;;3.40;1.30;;;19.80;93.60;;;-142.21;100.00;112049.66;5112239;28;20237;-70
2022/10/15 09:08:25;;;;;;;1.30;1.20;;;19.80;93.90;;;-142.21;100.00;112049.66;5111906;28;20235;-70
2022/10/15 09:10:57;;;;;;;1.10;1.00;;;19.80;93.80;;;-142.21;100.00;112049.66;5111262;28;20233;-70
2022/10/15 09:13:32;;;;;;;1.93;1.10;;;19.80;93.60;;;-142.21;100.00;112049.66;5112143;28;20729;-69
2022/10/15 09:16:11;;;;;;;4.23;1.10;;;19.80;93.50;;;-142.21;100.00;112049.66;5094177;28;20183;-70
2022/10/15 09:18:42;;;;;;;2.00;1.60;;;19.80;93.60;;;-142.21;100.00;112049.66;5111835;28;20273;-69
2022/10/15 09:21:12;;;;;;;3.93;1.63;;;19.90;93.60;;;-142.21;100.00;112049.66;5111556;28;20198;-68
2022/10/15 09:23:42;;;;;;;1.20;1.10;;;19.90;93.60;;;-142.21;100.00;112049.66;5111671;28;20224;-70
2022/10/15 09:26:25;;;;;;;2.13;1.63;;;19.90;93.60;;;-142.21;100.00;112049.66;5111284;28;20207;-70
2022/10/15 09:29:02;;;;;;;1.17;1.00;;;20.00;93.10;;;-142.21;100.00;112049.66;5111260;28;20249;-69
2022/10/15 09:31:41;;;;;;;0.97;0.73;;;20.10;93.00;;;-142.21;100.00;112049.66;5111968;28;20641;-68
2022/10/15 09:34:22;;;;;;;0.60;0.60;;;20.20;93.00;;;-142.21;100.00;112049.66;5111345;28;20295;-69
2022/10/15 09:36:56;;;;;;;1.50;0.90;;;20.30;92.60;;;-142.21;100.00;112049.66;5111460;28;20211;-69
2022/10/15 09:39:54;;;;;;;2.37;0.90;;;20.40;92.80;;;-142.21;100.00;112049.66;5111906;28;20577;-69
2022/10/15 09:42:30;;;;;;;1.10;1.00;;;20.40;92.20;;;-142.21;100.00;112049.66;5111647;28;20223;-69
2022/10/15 09:45:02;;;;;;;1.30;0.90;;;20.60;92.40;;;-142.21;100.00;112049.66;5111119;28;20188;-70
2022/10/15 09:47:34;;;;;;;1.67;0.90;;;20.80;92.50;;;-142.21;100.00;112049.66;5111723;28;20440;-70
2022/10/15 09:50:03;;;;;;;1.77;0.73;;;20.70;91.70;;;-142.21;100.00;112049.66;5111316;28;20223;-70
2022/10/15 09:52:52;;;;;;;1.57;0.97;;;20.80;91.60;;;-142.21;100.00;112049.66;5111408;28;20208;-70
2022/10/15 09:55:37;;;;;;;2.73;1.43;;;20.80;91.60;;;-142.21;100.00;112049.66;5111398;28;20212;-70
2022/10/15 09:58:12;;;;;;;1.10;0.60;;;20.80;91.50;;;-142.21;100.00;112049.66;5111083;28;20188;-69
2022/10/15 10:01:00;;;;;;;2.03;0.90;;;20.80;91.40;;;-142.21;100.00;112049.66;5111551;28;20287;-69
2022/10/15 10:03:32;;;;;;;0.90;0.90;;;20.80;91.10;;;-142.21;100.00;112049.66;5111600;28;20229;-70
2022/10/15 10:06:06;;;;;;;1.90;0.97;;;20.80;91.20;;;-142.21;100.00;112049.66;5110965;28;20294;-69
2022/10/15 10:08:39;;;;;;;0.70;0.70;;;20.80;91.30;;;-142.21;100.00;112049.66;5111225;28;20644;-69